sensor_id;sensor_type;location;lat;lon;timestamp;P1;durP1;ratioP1;P2;durP2;ratioP2
21120;SDS011;12519;43.318;21.898;2022-10-15T00:04:04;18.0;;;17.0;;
21120;SDS011;12519;43.318;21.898;2022-10-15T00:08:44;18.0;;;17.0;;
21120;SDS011;12519;43.318;21.898;2022-10-15T00:13:22;18.0;;;17.0;;
21120;SDS011;12519;43.318;21.898;2022-10-15T00:17:59;16.0;;;14.0;;
21120;SDS011;12519;43.318;21.898;2022-10-15T00:22:37;16.0;;;14.0;;
21120;SDS011;12519;43.318;21.898;2022-10-15T00:27:15;16.0;;;14.0;;
21120;SDS011;12519;43.318;21.898;2022-10-15T00:31:53;13.0;;;11.0;;
21120;SDS011;12519;43.318;21.898;2022-10-15T00:36:36;13.0;;;11.0;;
21120;SDS011;12519;43.318;21.898;2022-10-15T00:41:21;12.0;;;10.0;;
21120;SDS011;12519;43.318;21.898;2022-10-15T00:46:04;12.0;;;10.0;;
21120;SDS011;12519;43.318;21.898;2022-10-15T00:50:53;10.0;;;8.0;;
21120;SDS011;12519;43.318;21.898;2022-10-15T00:55:38;10.0;;;8.0;;
21120;SDS011;12519;43.318;21.898;2022-10-15T01:00:20;10.0;;;8.0;;
21120;SDS011;12519;43.318;21.898;2022-10-15T01:04:57;10.0;;;8.0;;
21120;SDS011;12519;43.318;21.898;2022-10-15T01:09:35;10.0;;;9.0;;
21120;SDS011;12519;43.318;21.898;2022-10-15T01:14:39;10.0;;;9.0;;
21120;SDS011;12519;43.318;21.898;2022-10-15T01:20:50;16.0;;;11.0;;
21120;SDS011;12519;43.318;21.898;2022-10-15T01:26:40;16.0;;;11.0;;
21120;SDS011;12519;43.318;21.898;2022-10-15T01:32:20;21.0;;;13.0;;
21120;SDS011;12519;43.318;21.898;2022-10-15T01:37:21;21.0;;;13.0;;
21120;SDS011;12519;43.318;21.898;2022-10-15T01:42:34;16.0;;;12.0;;
21120;SDS011;12519;43.318;21.898;2022-10-15T01:47:46;16.0;;;12.0;;
21120;SDS011;12519;43.318;21.898;2022-10-15T01:52:41;11.0;;;11.0;;
21120;SDS011;12519;43.318;21.898;2022-10-15T01:57:29;11.0;;;11.0;;
21120;SDS011;12519;43.318;21.898;2022-10-15T02:02:12;12.0;;;10.0;;
21120;SDS011;12519;43.318;21.898;2022-10-15T02:07:04;12.0;;;10.0;;
21120;SDS011;12519;43.318;21.898;2022-10-15T02:12:09;13.0;;;10.0;;
21120;SDS011;12519;43.318;21.898;2022-10-15T02:17:07;13.0;;;10.0;;
21120;SDS011;12519;43.318;21.898;2022-10-15T02:22:01;11.0;;;9.0;;
21120;SDS011;12519;43.318;21.898;2022-10-15T02:26:46;11.0;;;9.0;;
21120;SDS011;12519;43.318;21.898;2022-10-15T02:31:32;9.0;;;8.0;;
21120;SDS011;12519;43.318;21.898;2022-10-15T02:36:15;9.0;;;8.0;;
21120;SDS011;12519;43.318;21.898;2022-10-15T02:40:55;9.0;;;8.0;;
21120;SDS011;12519;43.318;21.898;2022-10-15T02:45:32;9.0;;;8.0;;
21120;SDS011;12519;43.318;21.898;2022-10-15T02:50:09;9.0;;;8.0;;
21120;SDS011;12519;43.318;21.898;2022-10-15T02:54:46;9.0;;;8.0;;
21120;SDS011;12519;43.318;21.898;2022-10-15T02:59:23;12.0;;;8.0;;
21120;SDS011;12519;43.318;21.898;2022-10-15T03:04:00;12.0;;;8.0;;
21120;SDS011;12519;43.318;21.898;2022-10-15T03:08:38;14.0;;;8.0;;
21120;SDS011;12519;43.318;21.898;2022-10-15T03:13:15;14.0;;;8.0;;
21120;SDS011;12519;43.318;21.898;2022-10-15T03:17:52;14.0;;;8.0;;
21120;SDS011;12519;43.318;21.898;2022-10-15T03:22:29;12.0;;;8.0;;
21120;SDS011;12519;43.318;21.898;2022-10-15T03:27:06;12.0;;;8.0;;
21120;SDS011;12519;43.318;21.898;2022-10-15T03:31:43;10.0;;;9.0;;
21120;SDS011;12519;43.318;21.898;2022-10-15T03:36:19;10.0;;;9.0;;
21120;SDS011;12519;43.318;21.898;2022-10-15T03:40:56;10.0;;;10.0;;
21120;SDS011;12519;43.318;21.898;2022-10-15T03:45:33;10.0;;;10.0;;
21120;SDS011;12519;43.318;21.898;2022-10-15T03:50:11;11.0;;;10.0;;
21120;SDS011;12519;43.318;21.898;2022-10-15T03:54:48;11.0;;;10.0;;
21120;SDS011;12519;43.318;21.898;2022-10-15T03:59:25;12.0;;;10.0;;
21120;SDS011;12519;43.318;21.898;2022-10-15T04:04:02;12.0;;;10.0;;
21120;SDS011;12519;43.318;21.898;2022-10-15T04:08:40;12.0;;;10.0;;
21120;SDS011;12519;43.318;21.898;2022-10-15T04:13:17;12.0;;;10.0;;
21120;SDS011;12519;43.318;21.898;2022-10-15T04:17:54;12.0;;;10.0;;
21120;SDS011;12519;43.318;21.898;2022-10-15T04:22:31;14.0;;;12.0;;
21120;SDS011;12519;43.318;21.898;2022-10-15T04:27:08;14.0;;;12.0;;
21120;SDS011;12519;43.318;21.898;2022-10-15T04:31:46;16.0;;;13.0;;
21120;SDS011;12519;43.318;21.898;2022-10-15T04:36:23;16.0;;;13.0;;
21120;SDS011;12519;43.318;21.898;2022-10-15T04:41:06;14.0;;;13.0;;
21120;SDS011;12519;43.318;21.898;2022-10-15T04:45:47;14.0;;;13.0;;
21120;SDS011;12519;43.318;21.898;2022-10-15T04:50:24;13.0;;;13.0;;
21120;SDS011;12519;43.318;21.898;2022-10-15T04:55:00;13.0;;;13.0;;
21120;SDS011;12519;43.318;21.898;2022-10-15T04:59:37;16.0;;;14.0;;
21120;SDS011;12519;43.318;21.898;2022-10-15T05:04:13;16.0;;;14.0;;
21120;SDS011;12519;43.318;21.898;2022-10-15T05:08:51;20.0;;;14.0;;
21120;SDS011;12519;43.318;21.898;2022-10-15T05:13:29;20.0;;;14.0;;
21120;SDS011;12519;43.318;21.898;2022-10-15T05:18:07;20.0;;;14.0;;
21120;SDS011;12519;43.318;21.898;2022-10-15T05:22:44;18.0;;;14.0;;
21120;SDS011;12519;43.318;21.898;2022-10-15T05:27:21;18.0;;;14.0;;
21120;SDS011;12519;43.318;21.898;2022-10-15T05:31:58;16.0;;;15.0;;
21120;SDS011;12519;43.318;21.898;2022-10-15T05:36:34;16.0;;;15.0;;
21120;SDS011;12519;43.318;21.898;2022-10-15T05:41:12;18.0;;;18.0;;
21120;SDS011;12519;43.318;21.898;2022-10-15T05:45:53;18.0;;;18.0;;
21120;SDS011;12519;43.318;21.898;2022-10-15T05:50:31;21.0;;;20.0;;
21120;SDS011;12519;43.318;21.898;2022-10-15T05:55:08;21.0;;;20.0;;
21120;SDS011;12519;43.318;21.898;2022-10-15T05:59:45;24.0;;;22.0;;
21120;SDS011;12519;43.318;21.898;2022-10-15T06:04:22;24.0;;;22.0;;
21120;SDS011;12519;43.318;21.898;2022-10-15T06:08:59;27.0;;;25.0;;
21120;SDS011;12519;43.318;21.898;2022-10-15T06:13:38;27.0;;;25.0;;
21120;SDS011;12519;43.318;21.898;2022-10-15T06:18:18;27.0;;;25.0;;
21120;SDS011;12519;43.318;21.898;2022-10-15T06:22:57;27.0;;;24.0;;
21120;SDS011;12519;43.318;21.898;2022-10-15T06:27:36;27.0;;;24.0;;
21120;SDS011;12519;43.318;21.898;2022-10-15T06:32:13;27.0;;;24.0;;
21120;SDS011;12519;43.318;21.898;2022-10-15T06:36:49;27.0;;;24.0;;
21120;SDS011;12519;43.318;21.898;2022-10-15T06:41:26;30.0;;;27.0;;
21120;SDS011;12519;43.318;21.898;2022-10-15T06:46:05;30.0;;;27.0;;
21120;SDS011;12519;43.318;21.898;2022-10-15T06:50:42;33.0;;;30.0;;
21120;SDS011;12519;43.318;21.898;2022-10-15T06:55:20;33.0;;;30.0;;
21120;SDS011;12519;43.318;21.898;2022-10-15T06:59:56;26.0;;;24.0;;
21120;SDS011;12519;43.318;21.898;2022-10-15T07:04:33;26.0;;;24.0;;
21120;SDS011;12519;43.318;21.898;2022-10-15T07:09:10;20.0;;;17.0;;
21120;SDS011;12519;43.318;21.898;2022-10-15T07:13:46;20.0;;;17.0;;
21120;SDS011;12519;43.318;21.898;2022-10-15T07:18:23;20.0;;;17.0;;
21120;SDS011;12519;43.318;21.898;2022-10-15T07:23:02;20.0;;;18.0;;
21120;SDS011;12519;43.318;21.898;2022-10-15T07:27:39;20.0;;;18.0;;
21120;SDS011;12519;43.318;21.898;2022-10-15T07:32:16;21.0;;;19.0;;
21120;SDS011;12519;43.318;21.898;2022-10-15T07:36:52;21.0;;;19.0;;
21120;SDS011;12519;43.318;21.898;2022-10-15T07:41:30;24.0;;;20.0;;
21120;SDS011;12519;43.318;21.898;2022-10-15T07:46:06;24.0;;;20.0;;
21120;SDS011;12519;43.318;21.898;2022-10-15T07:50:42;28.0;;;22.0;;
21120;SDS011;12519;43.318;21.898;2022-10-15T07:55:19;28.0;;;22.0;;
21120;SDS011;12519;43.318;21.898;2022-10-15T07:59:55;24.0;;;21.0;;
21120;SDS011;12519;43.318;21.898;2022-10-15T08:04:32;24.0;;;21.0;;
21120;SDS011;12519;43.318;21.898;2022-10-15T08:09:09;21.0;;;20.0;;
21120;SDS011;12519;43.318;21.898;2022-10-15T08:13:46;21.0;;;20.0;;
21120;SDS011;12519;43.318;21.898;2022-10-15T08:18:23;21.0;;;20.0;;
21120;SDS011;12519;43.318;21.898;2022-10-15T08:23:00;20.0;;;18.0;;
21120;SDS011;12519;43.318;21.898;2022-10-15T08:27:37;20.0;;;18.0;;
21120;SDS011;12519;43.318;21.898;2022-10-15T08:32:14;19.0;;;15.0;;
21120;SDS011;12519;43.318;21.898;2022-10-15T08:36:51;19.0;;;15.0;;
21120;SDS011;12519;43.318;21.898;2022-10-15T08:41:39;16.0;;;14.0;;
21120;SDS011;12519;43.318;21.898;2022-10-15T08:46:38;16.0;;;14.0;;
21120;SDS011;12519;43.318;21.898;2022-10-15T08:51:39;14.0;;;13.0;;
21120;SDS011;12519;43.318;21.898;2022-10-15T08:56:38;14.0;;;13.0;;
21120;SDS011;12519;43.318;21.898;2022-10-15T09:01:43;14.0;;;12.0;;
21120;SDS011;12519;43.318;21.898;2022-10-15T09:06:40;14.0;;;12.0;;
21120;SDS011;12519;43.318;21.898;2022-10-15T09:11:42;13.0;;;12.0;;
21120;SDS011;12519;43.318;21.898;2022-10-15T09:16:48;13.0;;;12.0;;
21120;SDS011;12519;43.318;21.898;2022-10-15T09:21:31;18.0;;;16.0;;
21120;SDS011;12519;43.318;21.898;2022-10-15T09:26:28;18.0;;;16.0;;
21120;SDS011;12519;43.318;21.898;2022-10-15T09:31:44;24.0;;;20.0;;
21120;SDS011;12519;43.318;21.898;2022-10-15T09:36:46;24.0;;;20.0;;
21120;SDS011;12519;43.318;21.898;2022-10-15T09:42:03;20.0;;;16.0;;
21120;SDS011;12519;43.318;21.898;2022-10-15T09:47:25;20.0;;;16.0;;
21120;SDS011;12519;43.318;21.898;2022-10-15T09:52:28;15.0;;;13.0;;
21120;SDS011;12519;43.318;21.898;2022-10-15T09:57:56;15.0;;;13.0;;
21120;SDS011;12519;43.318;21.898;2022-10-15T10:03:13;14.0;;;12.0;;
21120;SDS011;12519;43.318;21.898;2022-10-15T10:08:09;14.0;;;12.0;;
21120;SDS011;12519;43.318;21.898;2022-10-15T10:12:56;12.0;;;10.0;;
21120;SDS011;12519;43.318;21.898;2022-10-15T10:17:33;12.0;;;10.0;;
21120;SDS011;12519;43.318;21.898;2022-10-15T10:22:18;15.0;;;11.0;;
21120;SDS011;12519;43.318;21.898;2022-10-15T10:26:57;15.0;;;11.0;;
21120;SDS011;12519;43.318;21.898;2022-10-15T10:31:35;18.0;;;12.0;;
21120;SDS011;12519;43.318;21.898;2022-10-15T10:36:28;18.0;;;12.0;;
21120;SDS011;12519;43.318;21.898;2022-10-15T10:41:11;14.0;;;11.0;;
21120;SDS011;12519;43.318;21.898;2022-10-15T10:45:56;14.0;;;11.0;;
21120;SDS011;12519;43.318;21.898;2022-10-15T10:50:40;11.0;;;10.0;;
21120;SDS011;12519;43.318;21.898;2022-10-15T10:55:22;11.0;;;10.0;;
21120;SDS011;12519;43.318;21.898;2022-10-15T11:00:24;10.0;;;8.0;;
21120;SDS011;12519;43.318;21.898;2022-10-15T11:05:27;10.0;;;8.0;;
21120;SDS011;12519;43.318;21.898;2022-10-15T11:10:29;9.0;;;7.0;;
21120;SDS011;12519;43.318;21.898;2022-10-15T11:15:47;9.0;;;7.0;;
21120;SDS011;12519;43.318;21.898;2022-10-15T11:21:03;8.0;;;8.0;;
21120;SDS011;12519;43.318;21.898;2022-10-15T11:26:50;8.0;;;8.0;;
21120;SDS011;12519;43.318;21.898;2022-10-15T11:32:17;8.0;;;8.0;;
21120;SDS011;12519;43.318;21.898;2022-10-15T11:37:47;8.0;;;8.0;;
21120;SDS011;12519;43.318;21.898;2022-10-15T11:43:31;8.0;;;8.0;;
21120;SDS011;12519;43.318;21.898;2022-10-15T11:49:35;9.0;;;7.0;;
21120;SDS011;12519;43.318;21.898;2022-10-15T11:55:07;9.0;;;7.0;;
21120;SDS011;12519;43.318;21.898;2022-10-15T12:00:15;7.0;;;6.0;;
21120;SDS011;12519;43.318;21.898;2022-10-15T12:05:26;7.0;;;6.0;;
21120;SDS011;12519;43.318;21.898;2022-10-15T12:10:52;5.0;;;5.0;;
21120;SDS011;12519;43.318;21.898;2022-10-15T12:16:29;5.0;;;5.0;;
21120;SDS011;12519;43.318;21.898;2022-10-15T12:21:39;6.0;;;6.0;;
21120;SDS011;12519;43.318;21.898;2022-10-15T12:26:42;6.0;;;6.0;;
21120;SDS011;12519;43.318;21.898;2022-10-15T12:31:20;7.0;;;6.0;;
21120;SDS011;12519;43.318;21.898;2022-10-15T12:36:05;7.0;;;6.0;;
21120;SDS011;12519;43.318;21.898;2022-10-15T12:41:08;7.0;;;6.0;;
21120;SDS011;12519;43.318;21.898;2022-10-15T12:45:55;7.0;;;6.0;;
21120;SDS011;12519;43.318;21.898;2022-10-15T12:50:35;7.0;;;6.0;;
21120;SDS011;12519;43.318;21.898;2022-10-15T12:55:27;7.0;;;6.0;;
21120;SDS011;12519;43.318;21.898;2022-10-15T13:00:42;8.0;;;6.0;;
21120;SDS011;12519;43.318;21.898;2022-10-15T13:05:28;8.0;;;6.0;;
21120;SDS011;12519;43.318;21.898;2022-10-15T13:10:22;8.0;;;7.0;;
21120;SDS011;12519;43.318;21.898;2022-10-15T13:15:06;8.0;;;7.0;;
21120;SDS011;12519;43.318;21.898;2022-10-15T13:19:58;8.0;;;6.0;;
21120;SDS011;12519;43.318;21.898;2022-10-15T13:24:44;8.0;;;6.0;;
21120;SDS011;12519;43.318;21.898;2022-10-15T13:29:26;8.0;;;6.0;;
21120;SDS011;12519;43.318;21.898;2022-10-15T13:34:23;7.0;;;6.0;;
21120;SDS011;12519;43.318;21.898;2022-10-15T13:39:30;7.0;;;6.0;;
21120;SDS011;12519;43.318;21.898;2022-10-15T13:44:22;8.0;;;6.0;;
21120;SDS011;12519;43.318;21.898;2022-10-15T13:49:10;8.0;;;6.0;;
21120;SDS011;12519;43.318;21.898;2022-10-15T13:53:49;8.0;;;7.0;;
21120;SDS011;12519;43.318;21.898;2022-10-15T13:58:32;8.0;;;7.0;;
21120;SDS011;12519;43.318;21.898;2022-10-15T14:03:20;8.0;;;6.0;;
21120;SDS011;12519;43.318;21.898;2022-10-15T14:08:01;8.0;;;6.0;;
21120;SDS011;12519;43.318;21.898;2022-10-15T14:12:37;7.0;;;6.0;;
21120;SDS011;12519;43.318;21.898;2022-10-15T14:17:25;7.0;;;6.0;;
21120;SDS011;12519;43.318;21.898;2022-10-15T14:22:04;9.0;;;7.0;;
21120;SDS011;12519;43.318;21.898;2022-10-15T14:26:51;9.0;;;7.0;;
21120;SDS011;12519;43.318;21.898;2022-10-15T14:31:38;11.0;;;8.0;;
21120;SDS011;12519;43.318;21.898;2022-10-15T14:36:30;11.0;;;8.0;;
21120;SDS011;12519;43.318;21.898;2022-10-15T14:41:28;10.0;;;8.0;;
21120;SDS011;12519;43.318;21.898;2022-10-15T14:46:17;10.0;;;8.0;;
21120;SDS011;12519;43.318;21.898;2022-10-15T14:50:59;9.0;;;8.0;;
21120;SDS011;12519;43.318;21.898;2022-10-15T14:55:55;9.0;;;8.0;;
21120;SDS011;12519;43.318;21.898;2022-10-15T15:00:58;10.0;;;8.0;;
21120;SDS011;12519;43.318;21.898;2022-10-15T15:05:47;10.0;;;8.0;;
21120;SDS011;12519;43.318;21.898;2022-10-15T15:10:31;10.0;;;7.0;;
21120;SDS011;12519;43.318;21.898;2022-10-15T15:15:14;10.0;;;7.0;;
21120;SDS011;12519;43.318;21.898;2022-10-15T15:19:57;8.0;;;6.0;;
21120;SDS011;12519;43.318;21.898;2022-10-15T15:24:34;8.0;;;6.0;;
21120;SDS011;12519;43.318;21.898;2022-10-15T15:29:12;8.0;;;6.0;;
21120;SDS011;12519;43.318;21.898;2022-10-15T15:33:48;6.0;;;6.0;;
21120;SDS011;12519;43.318;21.898;2022-10-15T15:38:25;6.0;;;6.0;;
21120;SDS011;12519;43.318;21.898;2022-10-15T15:43:03;6.0;;;6.0;;
21120;SDS011;12519;43.318;21.898;2022-10-15T15:47:40;6.0;;;6.0;;
21120;SDS011;12519;43.318;21.898;2022-10-15T15:52:16;6.0;;;6.0;;
21120;SDS011;12519;43.318;21.898;2022-10-15T15:56:52;6.0;;;6.0;;
21120;SDS011;12519;43.318;21.898;2022-10-15T16:01:29;7.0;;;6.0;;
21120;SDS011;12519;43.318;21.898;2022-10-15T16:06:07;7.0;;;6.0;;
21120;SDS011;12519;43.318;21.898;2022-10-15T16:10:44;8.0;;;7.0;;
21120;SDS011;12519;43.318;21.898;2022-10-15T16:15:21;8.0;;;7.0;;
21120;SDS011;12519;43.318;21.898;2022-10-15T16:19:58;8.0;;;6.0;;
21120;SDS011;12519;43.318;21.898;2022-10-15T16:24:34;8.0;;;6.0;;
21120;SDS011;12519;43.318;21.898;2022-10-15T16:29:11;8.0;;;6.0;;
21120;SDS011;12519;43.318;21.898;2022-10-15T16:33:49;8.0;;;6.0;;
21120;SDS011;12519;43.318;21.898;2022-10-15T16:38:27;8.0;;;6.0;;
21120;SDS011;12519;43.318;21.898;2022-10-15T16:43:03;8.0;;;6.0;;
21120;SDS011;12519;43.318;21.898;2022-10-15T16:47:40;8.0;;;6.0;;
21120;SDS011;12519;43.318;21.898;2022-10-15T16:52:17;7.0;;;6.0;;
21120;SDS011;12519;43.318;21.898;2022-10-15T16:56:54;7.0;;;6.0;;
21120;SDS011;12519;43.318;21.898;2022-10-15T17:01:30;8.0;;;6.0;;
21120;SDS011;12519;43.318;21.898;2022-10-15T17:06:12;8.0;;;6.0;;
21120;SDS011;12519;43.318;21.898;2022-10-15T17:10:52;9.0;;;7.0;;
21120;SDS011;12519;43.318;21.898;2022-10-15T17:15:30;9.0;;;7.0;;
21120;SDS011;12519;43.318;21.898;2022-10-15T17:20:10;10.0;;;9.0;;
21120;SDS011;12519;43.318;21.898;2022-10-15T17:24:48;10.0;;;9.0;;
21120;SDS011;12519;43.318;21.898;2022-10-15T17:29:25;10.0;;;9.0;;
21120;SDS011;12519;43.318;21.898;2022-10-15T17:34:08;12.0;;;11.0;;
21120;SDS011;12519;43.318;21.898;2022-10-15T17:38:49;12.0;;;11.0;;
21120;SDS011;12519;43.318;21.898;2022-10-15T17:43:27;11.0;;;10.0;;
21120;SDS011;12519;43.318;21.898;2022-10-15T17:48:05;11.0;;;10.0;;
21120;SDS011;12519;43.318;21.898;2022-10-15T17:52:42;10.0;;;9.0;;
21120;SDS011;12519;43.318;21.898;2022-10-15T17:57:19;10.0;;;9.0;;
21120;SDS011;12519;43.318;21.898;2022-10-15T18:01:55;14.0;;;12.0;;
21120;SDS011;12519;43.318;21.898;2022-10-15T18:06:32;14.0;;;12.0;;
21120;SDS011;12519;43.318;21.898;2022-10-15T18:11:14;18.0;;;14.0;;
21120;SDS011;12519;43.318;21.898;2022-10-15T18:15:55;18.0;;;14.0;;
21120;SDS011;12519;43.318;21.898;2022-10-15T18:20:32;14.0;;;12.0;;
21120;SDS011;12519;43.318;21.898;2022-10-15T18:25:08;14.0;;;12.0;;
21120;SDS011;12519;43.318;21.898;2022-10-15T18:29:45;14.0;;;12.0;;
21120;SDS011;12519;43.318;21.898;2022-10-15T18:34:21;11.0;;;9.0;;
21120;SDS011;12519;43.318;21.898;2022-10-15T18:38:58;11.0;;;9.0;;
21120;SDS011;12519;43.318;21.898;2022-10-15T18:43:35;15.0;;;12.0;;
21120;SDS011;12519;43.318;21.898;2022-10-15T18:48:12;15.0;;;12.0;;
21120;SDS011;12519;43.318;21.898;2022-10-15T18:52:48;19.0;;;14.0;;
21120;SDS011;12519;43.318;21.898;2022-10-15T18:57:25;19.0;;;14.0;;
21120;SDS011;12519;43.318;21.898;2022-10-15T19:02:02;17.0;;;14.0;;
21120;SDS011;12519;43.318;21.898;2022-10-15T19:06:44;17.0;;;14.0;;
21120;SDS011;12519;43.318;21.898;2022-10-15T19:11:28;15.0;;;13.0;;
21120;SDS011;12519;43.318;21.898;2022-10-15T19:16:07;15.0;;;13.0;;
21120;SDS011;12519;43.318;21.898;2022-10-15T19:20:45;16.0;;;14.0;;
21120;SDS011;12519;43.318;21.898;2022-10-15T19:25:23;16.0;;;14.0;;
21120;SDS011;12519;43.318;21.898;2022-10-15T19:29:59;16.0;;;14.0;;
21120;SDS011;12519;43.318;21.898;2022-10-15T19:34:36;16.0;;;14.0;;
21120;SDS011;12519;43.318;21.898;2022-10-15T19:39:19;16.0;;;14.0;;
21120;SDS011;12519;43.318;21.898;2022-10-15T19:44:01;16.0;;;13.0;;
21120;SDS011;12519;43.318;21.898;2022-10-15T19:48:41;16.0;;;13.0;;
21120;SDS011;12519;43.318;21.898;2022-10-15T19:53:18;17.0;;;12.0;;
21120;SDS011;12519;43.318;21.898;2022-10-15T19:57:54;17.0;;;12.0;;
21120;SDS011;12519;43.318;21.898;2022-10-15T20:02:31;14.0;;;10.0;;
21120;SDS011;12519;43.318;21.898;2022-10-15T20:07:07;14.0;;;10.0;;
21120;SDS011;12519;43.318;21.898;2022-10-15T20:11:44;11.0;;;9.0;;
21120;SDS011;12519;43.318;21.898;2022-10-15T20:16:21;11.0;;;9.0;;
21120;SDS011;12519;43.318;21.898;2022-10-15T20:20:58;12.0;;;10.0;;
21120;SDS011;12519;43.318;21.898;2022-10-15T20:25:36;12.0;;;10.0;;
21120;SDS011;12519;43.318;21.898;2022-10-15T20:30:14;12.0;;;10.0;;
21120;SDS011;12519;43.318;21.898;2022-10-15T20:34:51;14.0;;;10.0;;
21120;SDS011;12519;43.318;21.898;2022-10-15T20:39:28;14.0;;;10.0;;
21120;SDS011;12519;43.318;21.898;2022-10-15T20:44:05;16.0;;;12.0;;
21120;SDS011;12519;43.318;21.898;2022-10-15T20:48:48;16.0;;;12.0;;
21120;SDS011;12519;43.318;21.898;2022-10-15T20:53:26;17.0;;;13.0;;
21120;SDS011;12519;43.318;21.898;2022-10-15T20:58:04;17.0;;;13.0;;
21120;SDS011;12519;43.318;21.898;2022-10-15T21:02:41;16.0;;;12.0;;
21120;SDS011;12519;43.318;21.898;2022-10-15T21:07:18;16.0;;;12.0;;
21120;SDS011;12519;43.318;21.898;2022-10-15T21:11:54;15.0;;;11.0;;
21120;SDS011;12519;43.318;21.898;2022-10-15T21:16:31;15.0;;;11.0;;
21120;SDS011;12519;43.318;21.898;2022-10-15T21:21:12;13.0;;;10.0;;
21120;SDS011;12519;43.318;21.898;2022-10-15T21:25:50;13.0;;;10.0;;
21120;SDS011;12519;43.318;21.898;2022-10-15T21:30:26;13.0;;;10.0;;
21120;SDS011;12519;43.318;21.898;2022-10-15T21:35:05;11.0;;;9.0;;
21120;SDS011;12519;43.318;21.898;2022-10-15T21:39:44;11.0;;;9.0;;
21120;SDS011;12519;43.318;21.898;2022-10-15T21:44:21;12.0;;;10.0;;
21120;SDS011;12519;43.318;21.898;2022-10-15T21:49:00;12.0;;;10.0;;
21120;SDS011;12519;43.318;21.898;2022-10-15T21:53:37;14.0;;;12.0;;
21120;SDS011;12519;43.318;21.898;2022-10-15T21:58:14;14.0;;;12.0;;
21120;SDS011;12519;43.318;21.898;2022-10-15T22:02:50;14.0;;;11.0;;
21120;SDS011;12519;43.318;21.898;2022-10-15T22:07:26;14.0;;;11.0;;
21120;SDS011;12519;43.318;21.898;2022-10-15T22:12:04;13.0;;;10.0;;
21120;SDS011;12519;43.318;21.898;2022-10-15T22:16:41;13.0;;;10.0;;
21120;SDS011;12519;43.318;21.898;2022-10-15T22:21:23;10.0;;;9.0;;
21120;SDS011;12519;43.318;21.898;2022-10-15T22:26:07;10.0;;;9.0;;
21120;SDS011;12519;43.318;21.898;2022-10-15T22:30:43;8.0;;;8.0;;
21120;SDS011;12519;43.318;21.898;2022-10-15T22:35:20;8.0;;;8.0;;
21120;SDS011;12519;43.318;21.898;2022-10-15T22:39:57;8.0;;;8.0;;
21120;SDS011;12519;43.318;21.898;2022-10-15T22:44:34;8.0;;;8.0;;
21120;SDS011;12519;43.318;21.898;2022-10-15T22:49:13;8.0;;;8.0;;
21120;SDS011;12519;43.318;21.898;2022-10-15T22:53:58;7.0;;;7.0;;
21120;SDS011;12519;43.318;21.898;2022-10-15T22:58:37;7.0;;;7.0;;
21120;SDS011;12519;43.318;21.898;2022-10-15T23:03:15;8.0;;;8.0;;
21120;SDS011;12519;43.318;21.898;2022-10-15T23:07:52;8.0;;;8.0;;
21120;SDS011;12519;43.318;21.898;2022-10-15T23:12:28;9.0;;;8.0;;
21120;SDS011;12519;43.318;21.898;2022-10-15T23:17:05;9.0;;;8.0;;
21120;SDS011;12519;43.318;21.898;2022-10-15T23:21:46;8.0;;;8.0;;
21120;SDS011;12519;43.318;21.898;2022-10-15T23:26:28;8.0;;;8.0;;
21120;SDS011;12519;43.318;21.898;2022-10-15T23:31:05;7.0;;;7.0;;
21120;SDS011;12519;43.318;21.898;2022-10-15T23:35:41;7.0;;;7.0;;
21120;SDS011;12519;43.318;21.898;2022-10-15T23:40:17;7.0;;;7.0;;
21120;SDS011;12519;43.318;21.898;2022-10-15T23:44:54;7.0;;;6.0;;
21120;SDS011;12519;43.318;21.898;2022-10-15T23:49:30;7.0;;;6.0;;
21120;SDS011;12519;43.318;21.898;2022-10-15T23:54:15;7.0;;;6.0;;
21120;SDS011;12519;43.318;21.898;2022-10-15T23:58:57;7.0;;;6.0;;
